sensor_id;sensor_type;location;lat;lon;timestamp;pressure;altitude;pressure_sealevel;temperature;humidity
61786;BME280;47692;53.714;11.372;2023-04-25T00:00:39;99791.81;;;6.85;100.00
61786;BME280;47692;53.714;11.372;2023-04-25T00:03:04;99785.91;;;6.78;100.00
61786;BME280;47692;53.714;11.372;2023-04-25T00:05:31;99790.22;;;6.77;100.00
61786;BME280;47692;53.714;11.372;2023-04-25T00:07:57;99790.19;;;6.81;100.00
61786;BME280;47692;53.714;11.372;2023-04-25T00:10:23;99798.84;;;6.79;100.00
61786;BME280;47692;53.714;11.372;2023-04-25T00:12:48;99794.66;;;6.74;100.00
61786;BME280;47692;53.714;11.372;2023-04-25T00:15:14;99798.00;;;6.77;100.00
61786;BME280;47692;53.714;11.372;2023-04-25T00:17:40;99807.75;;;6.68;100.00
61786;BME280;47692;53.714;11.372;2023-04-25T00:20:05;99803.47;;;6.65;100.00
61786;BME280;47692;53.714;11.372;2023-04-25T00:22:34;99802.72;;;6.60;100.00
61786;BME280;47692;53.714;11.372;2023-04-25T00:24:59;99799.19;;;6.62;100.00
61786;BME280;47692;53.714;11.372;2023-04-25T00:27:26;99795.88;;;6.56;100.00
61786;BME280;47692;53.714;11.372;2023-04-25T00:29:51;99793.28;;;6.56;100.00
61786;BME280;47692;53.714;11.372;2023-04-25T00:32:16;99799.38;;;6.55;100.00
61786;BME280;47692;53.714;11.372;2023-04-25T00:34:42;99797.72;;;6.51;100.00
61786;BME280;47692;53.714;11.372;2023-04-25T00:37:07;99789.88;;;6.54;100.00
61786;BME280;47692;53.714;11.372;2023-04-25T00:39:32;99797.78;;;6.47;100.00
61786;BME280;47692;53.714;11.372;2023-04-25T00:41:58;99797.72;;;6.51;100.00
61786;BME280;47692;53.714;11.372;2023-04-25T00:44:24;99799.56;;;6.45;100.00
61786;BME280;47692;53.714;11.372;2023-04-25T00:46:50;99800.38;;;6.47;100.00
61786;BME280;47692;53.714;11.372;2023-04-25T00:49:16;99802.13;;;6.47;100.00
61786;BME280;47692;53.714;11.372;2023-04-25T00:51:42;99805.47;;;6.52;100.00
61786;BME280;47692;53.714;11.372;2023-04-25T00:54:11;99797.66;;;6.54;100.00
61786;BME280;47692;53.714;11.372;2023-04-25T00:56:37;99805.38;;;6.57;100.00
61786;BME280;47692;53.714;11.372;2023-04-25T00:59:03;99805.56;;;6.49;100.00
61786;BME280;47692;53.714;11.372;2023-04-25T01:01:28;99802.16;;;6.44;100.00
61786;BME280;47692;53.714;11.372;2023-04-25T01:03:54;99801.25;;;6.48;100.00
61786;BME280;47692;53.714;11.372;2023-04-25T01:06:19;99804.69;;;6.49;100.00
61786;BME280;47692;53.714;11.372;2023-04-25T01:08:45;99808.16;;;6.47;100.00
61786;BME280;47692;53.714;11.372;2023-04-25T01:11:10;99815.94;;;6.47;100.00
61786;BME280;47692;53.714;11.372;2023-04-25T01:13:35;99804.75;;;6.45;100.00
61786;BME280;47692;53.714;11.372;2023-04-25T01:16:02;99804.75;;;6.45;100.00
61786;BME280;47692;53.714;11.372;2023-04-25T01:18:27;99801.28;;;6.46;100.00
61786;BME280;47692;53.714;11.372;2023-04-25T01:20:53;99800.41;;;6.46;100.00
61786;BME280;47692;53.714;11.372;2023-04-25T01:23:22;99806.50;;;6.43;100.00
61786;BME280;47692;53.714;11.372;2023-04-25T01:25:48;99807.16;;;6.55;100.00
61786;BME280;47692;53.714;11.372;2023-04-25T01:28:14;99802.84;;;6.54;100.00
61786;BME280;47692;53.714;11.372;2023-04-25T01:30:40;99815.78;;;6.55;100.00
61786;BME280;47692;53.714;11.372;2023-04-25T01:33:08;99809.66;;;6.59;100.00
61786;BME280;47692;53.714;11.372;2023-04-25T01:35:33;99805.16;;;6.68;100.00
61786;BME280;47692;53.714;11.372;2023-04-25T01:37:59;99816.50;;;6.62;100.00
61786;BME280;47692;53.714;11.372;2023-04-25T01:40:24;99813.09;;;6.60;100.00
61786;BME280;47692;53.714;11.372;2023-04-25T01:42:50;99808.81;;;6.59;100.00
61786;BME280;47692;53.714;11.372;2023-04-25T01:45:16;99814.00;;;6.57;100.00
61786;BME280;47692;53.714;11.372;2023-04-25T01:47:42;99814.88;;;6.58;100.00
61786;BME280;47692;53.714;11.372;2023-04-25T01:50:09;99816.56;;;6.60;100.00
61786;BME280;47692;53.714;11.372;2023-04-25T01:52:35;99816.63;;;6.56;100.00
61786;BME280;47692;53.714;11.372;2023-04-25T01:55:01;99821.78;;;6.59;100.00
61786;BME280;47692;53.714;11.372;2023-04-25T01:57:27;99821.78;;;6.57;100.00
61786;BME280;47692;53.714;11.372;2023-04-25T01:59:58;99826.97;;;6.59;100.00
61786;BME280;47692;53.714;11.372;2023-04-25T02:02:23;99827.75;;;6.61;100.00
61786;BME280;47692;53.714;11.372;2023-04-25T02:04:49;99821.81;;;6.56;100.00
61786;BME280;47692;53.714;11.372;2023-04-25T02:07:14;99838.22;;;6.56;100.00
61786;BME280;47692;53.714;11.372;2023-04-25T02:09:40;99826.19;;;6.54;100.00
61786;BME280;47692;53.714;11.372;2023-04-25T02:12:08;99835.66;;;6.55;100.00
61786;BME280;47692;53.714;11.372;2023-04-25T02:14:34;99839.97;;;6.56;100.00
61786;BME280;47692;53.714;11.372;2023-04-25T02:16:59;99843.50;;;6.53;100.00
61786;BME280;47692;53.714;11.372;2023-04-25T02:19:25;99837.59;;;6.46;100.00
61786;BME280;47692;53.714;11.372;2023-04-25T02:21:50;99837.50;;;6.50;100.00
61786;BME280;47692;53.714;11.372;2023-04-25T02:24:15;99841.78;;;6.52;100.00
61786;BME280;47692;53.714;11.372;2023-04-25T02:26:41;99835.75;;;6.52;100.00
61786;BME280;47692;53.714;11.372;2023-04-25T02:29:06;99838.44;;;6.47;100.00
61786;BME280;47692;53.714;11.372;2023-04-25T02:31:32;99832.44;;;6.43;100.00
61786;BME280;47692;53.714;11.372;2023-04-25T02:33:57;99841.94;;;6.44;100.00
61786;BME280;47692;53.714;11.372;2023-04-25T02:36:22;99853.25;;;6.40;100.00
61786;BME280;47692;53.714;11.372;2023-04-25T02:38:49;99841.22;;;6.36;100.00
61786;BME280;47692;53.714;11.372;2023-04-25T02:41:14;99844.78;;;6.32;100.00
61786;BME280;47692;53.714;11.372;2023-04-25T02:43:39;99855.13;;;6.32;100.00
61786;BME280;47692;53.714;11.372;2023-04-25T02:46:06;99853.59;;;6.22;100.00
61786;BME280;47692;53.714;11.372;2023-04-25T02:48:31;99848.47;;;6.19;100.00
61786;BME280;47692;53.714;11.372;2023-04-25T02:50:56;99845.03;;;6.17;100.00
61786;BME280;47692;53.714;11.372;2023-04-25T02:53:22;99855.44;;;6.15;100.00
61786;BME280;47692;53.714;11.372;2023-04-25T02:55:47;99858.09;;;6.12;100.00
61786;BME280;47692;53.714;11.372;2023-04-25T02:58:12;99850.22;;;6.17;100.00
61786;BME280;47692;53.714;11.372;2023-04-25T03:00:38;99856.38;;;6.11;99.03
61786;BME280;47692;53.714;11.372;2023-04-25T03:03:03;99857.31;;;6.08;99.05
61786;BME280;47692;53.714;11.372;2023-04-25T03:05:28;99859.94;;;6.05;99.31
61786;BME280;47692;53.714;11.372;2023-04-25T03:07:54;99852.22;;;6.02;99.81
61786;BME280;47692;53.714;11.372;2023-04-25T03:10:19;99862.63;;;5.99;99.37
61786;BME280;47692;53.714;11.372;2023-04-25T03:12:44;99861.72;;;6.03;97.74
61786;BME280;47692;53.714;11.372;2023-04-25T03:15:10;99862.59;;;6.02;96.69
61786;BME280;47692;53.714;11.372;2023-04-25T03:17:35;99864.34;;;6.00;96.73
61786;BME280;47692;53.714;11.372;2023-04-25T03:20:00;99862.66;;;5.96;97.43
61786;BME280;47692;53.714;11.372;2023-04-25T03:22:26;99876.50;;;5.95;97.82
61786;BME280;47692;53.714;11.372;2023-04-25T03:24:51;99876.56;;;5.92;97.95
61786;BME280;47692;53.714;11.372;2023-04-25T03:27:17;99882.72;;;5.85;98.30
61786;BME280;47692;53.714;11.372;2023-04-25T03:29:42;99881.00;;;5.83;98.03
61786;BME280;47692;53.714;11.372;2023-04-25T03:32:07;99891.38;;;5.83;96.80
61786;BME280;47692;53.714;11.372;2023-04-25T03:34:33;99889.81;;;5.73;94.49
61786;BME280;47692;53.714;11.372;2023-04-25T03:36:59;99897.59;;;5.73;93.40
61786;BME280;47692;53.714;11.372;2023-04-25T03:39:25;99884.75;;;5.67;92.63
61786;BME280;47692;53.714;11.372;2023-04-25T03:41:50;99902.06;;;5.63;92.05
61786;BME280;47692;53.714;11.372;2023-04-25T03:44:15;99896.03;;;5.61;92.20
61786;BME280;47692;53.714;11.372;2023-04-25T03:46:41;99904.66;;;5.62;91.97
61786;BME280;47692;53.714;11.372;2023-04-25T03:49:06;99904.75;;;5.56;91.60
61786;BME280;47692;53.714;11.372;2023-04-25T03:51:31;99906.53;;;5.54;92.20
61786;BME280;47692;53.714;11.372;2023-04-25T03:53:58;99904.00;;;5.49;92.24
61786;BME280;47692;53.714;11.372;2023-04-25T03:56:23;99908.31;;;5.48;91.10
61786;BME280;47692;53.714;11.372;2023-04-25T03:58:48;99910.91;;;5.47;90.57
61786;BME280;47692;53.714;11.372;2023-04-25T04:01:14;99912.78;;;5.39;90.11
61786;BME280;47692;53.714;11.372;2023-04-25T04:03:39;99912.00;;;5.32;90.21
61786;BME280;47692;53.714;11.372;2023-04-25T04:06:06;99917.16;;;5.33;90.34
61786;BME280;47692;53.714;11.372;2023-04-25T04:08:32;99921.56;;;5.28;90.60
61786;BME280;47692;53.714;11.372;2023-04-25T04:10:58;99928.44;;;5.28;90.33
61786;BME280;47692;53.714;11.372;2023-04-25T04:13:26;99931.19;;;5.18;90.18
61786;BME280;47692;53.714;11.372;2023-04-25T04:15:51;99934.63;;;5.17;89.86
61786;BME280;47692;53.714;11.372;2023-04-25T04:18:17;99941.59;;;5.12;90.22
61786;BME280;47692;53.714;11.372;2023-04-25T04:20:42;99941.69;;;5.06;91.28
61786;BME280;47692;53.714;11.372;2023-04-25T04:23:07;99946.84;;;5.06;91.33
61786;BME280;47692;53.714;11.372;2023-04-25T04:25:33;99941.72;;;5.03;91.55
61786;BME280;47692;53.714;11.372;2023-04-25T04:27:59;99957.34;;;4.94;91.34
61786;BME280;47692;53.714;11.372;2023-04-25T04:30:26;99961.66;;;4.95;91.90
61786;BME280;47692;53.714;11.372;2023-04-25T04:32:55;99963.47;;;4.87;91.59
61786;BME280;47692;53.714;11.372;2023-04-25T04:35:21;99967.69;;;4.94;91.28
61786;BME280;47692;53.714;11.372;2023-04-25T04:37:46;99962.59;;;4.88;90.36
61786;BME280;47692;53.714;11.372;2023-04-25T04:40:13;99969.56;;;4.82;89.86
61786;BME280;47692;53.714;11.372;2023-04-25T04:42:43;99973.00;;;4.81;90.16
61786;BME280;47692;53.714;11.372;2023-04-25T04:45:09;99972.03;;;4.92;90.32
61786;BME280;47692;53.714;11.372;2023-04-25T04:47:35;99967.69;;;4.94;89.95
61786;BME280;47692;53.714;11.372;2023-04-25T04:50:02;99971.19;;;4.90;90.13
61786;BME280;47692;53.714;11.372;2023-04-25T04:52:27;99981.53;;;4.90;90.66
61786;BME280;47692;53.714;11.372;2023-04-25T04:54:53;99967.72;;;4.91;90.72
61786;BME280;47692;53.714;11.372;2023-04-25T04:57:18;99978.94;;;4.91;90.84
61786;BME280;47692;53.714;11.372;2023-04-25T04:59:43;99975.38;;;4.98;91.08
61786;BME280;47692;53.714;11.372;2023-04-25T05:02:09;99985.69;;;5.03;90.61
61786;BME280;47692;53.714;11.372;2023-04-25T05:04:35;99983.09;;;5.03;89.45
61786;BME280;47692;53.714;11.372;2023-04-25T05:07:00;99984.81;;;5.04;89.00
61786;BME280;47692;53.714;11.372;2023-04-25T05:09:26;99982.25;;;5.03;88.53
61786;BME280;47692;53.714;11.372;2023-04-25T05:11:52;99983.19;;;4.97;88.63
61786;BME280;47692;53.714;11.372;2023-04-25T05:14:17;99979.66;;;5.04;88.44
61786;BME280;47692;53.714;11.372;2023-04-25T05:16:43;99981.31;;;5.08;88.44
61786;BME280;47692;53.714;11.372;2023-04-25T05:19:08;99988.22;;;5.09;88.57
61786;BME280;47692;53.714;11.372;2023-04-25T05:21:34;99986.41;;;5.14;88.73
61786;BME280;47692;53.714;11.372;2023-04-25T05:24:00;99991.59;;;5.14;87.92
61786;BME280;47692;53.714;11.372;2023-04-25T05:26:25;100000.06;;;5.26;87.49
61786;BME280;47692;53.714;11.372;2023-04-25T05:28:50;99997.50;;;5.27;86.96
61786;BME280;47692;53.714;11.372;2023-04-25T05:31:16;100001.78;;;5.28;85.86
61786;BME280;47692;53.714;11.372;2023-04-25T05:33:41;99991.44;;;5.27;85.63
61786;BME280;47692;53.714;11.372;2023-04-25T05:36:07;99987.09;;;5.30;84.40
61786;BME280;47692;53.714;11.372;2023-04-25T05:38:32;99994.78;;;5.35;83.46
61786;BME280;47692;53.714;11.372;2023-04-25T05:40:58;99993.88;;;5.39;82.45
61786;BME280;47692;53.714;11.372;2023-04-25T05:43:23;99998.94;;;5.47;81.91
61786;BME280;47692;53.714;11.372;2023-04-25T05:45:48;99992.00;;;5.52;81.61
61786;BME280;47692;53.714;11.372;2023-04-25T05:48:14;99999.75;;;5.54;81.46
61786;BME280;47692;53.714;11.372;2023-04-25T05:50:39;100006.66;;;5.52;81.55
61786;BME280;47692;53.714;11.372;2023-04-25T05:53:04;100009.22;;;5.53;81.15
61786;BME280;47692;53.714;11.372;2023-04-25T05:55:30;100014.44;;;5.52;80.51
61786;BME280;47692;53.714;11.372;2023-04-25T05:57:56;100006.47;;;5.67;80.94
61786;BME280;47692;53.714;11.372;2023-04-25T06:00:21;100014.25;;;5.67;80.70
61786;BME280;47692;53.714;11.372;2023-04-25T06:02:47;100014.13;;;5.75;80.60
61786;BME280;47692;53.714;11.372;2023-04-25T06:05:13;100020.22;;;5.72;79.90
61786;BME280;47692;53.714;11.372;2023-04-25T06:07:38;100018.31;;;5.83;79.88
61786;BME280;47692;53.714;11.372;2023-04-25T06:10:04;100013.22;;;5.77;78.85
61786;BME280;47692;53.714;11.372;2023-04-25T06:12:32;100025.25;;;5.81;78.65
61786;BME280;47692;53.714;11.372;2023-04-25T06:14:58;100029.53;;;5.82;78.99
61786;BME280;47692;53.714;11.372;2023-04-25T06:17:23;100025.16;;;5.88;78.68
61786;BME280;47692;53.714;11.372;2023-04-25T06:19:48;100038.84;;;5.99;79.65
61786;BME280;47692;53.714;11.372;2023-04-25T06:22:14;100025.06;;;5.94;77.55
61786;BME280;47692;53.714;11.372;2023-04-25T06:24:39;100035.41;;;5.97;76.98
61786;BME280;47692;53.714;11.372;2023-04-25T06:27:05;100023.44;;;5.87;76.53
61786;BME280;47692;53.714;11.372;2023-04-25T06:29:30;100023.41;;;5.90;76.32
61786;BME280;47692;53.714;11.372;2023-04-25T06:31:55;100028.59;;;5.90;76.54
61786;BME280;47692;53.714;11.372;2023-04-25T06:34:20;100035.44;;;5.94;76.62
61786;BME280;47692;53.714;11.372;2023-04-25T06:36:46;100031.13;;;5.94;75.51
61786;BME280;47692;53.714;11.372;2023-04-25T06:39:11;100035.47;;;5.89;74.87
61786;BME280;47692;53.714;11.372;2023-04-25T06:41:37;100035.50;;;5.88;74.88
61786;BME280;47692;53.714;11.372;2023-04-25T06:44:02;100048.53;;;5.85;75.13
61786;BME280;47692;53.714;11.372;2023-04-25T06:46:27;100046.66;;;5.94;75.67
61786;BME280;47692;53.714;11.372;2023-04-25T06:48:53;100044.16;;;5.87;75.54
61786;BME280;47692;53.714;11.372;2023-04-25T06:51:18;100044.22;;;5.83;75.22
61786;BME280;47692;53.714;11.372;2023-04-25T06:53:43;100042.56;;;5.79;74.23
61786;BME280;47692;53.714;11.372;2023-04-25T06:56:08;100045.16;;;5.79;75.42
61786;BME280;47692;53.714;11.372;2023-04-25T06:58:34;100045.19;;;5.76;75.61
61786;BME280;47692;53.714;11.372;2023-04-25T07:00:59;100046.88;;;5.79;75.40
61786;BME280;47692;53.714;11.372;2023-04-25T07:03:25;100054.59;;;5.83;76.10
61786;BME280;47692;53.714;11.372;2023-04-25T07:05:50;100050.31;;;5.81;75.54
61786;BME280;47692;53.714;11.372;2023-04-25T07:08:16;100054.59;;;5.83;75.59
61786;BME280;47692;53.714;11.372;2023-04-25T07:10:41;100050.31;;;5.81;74.95
61786;BME280;47692;53.714;11.372;2023-04-25T07:13:07;100052.84;;;5.86;74.79
61786;BME280;47692;53.714;11.372;2023-04-25T07:15:32;100051.13;;;5.85;73.97
61786;BME280;47692;53.714;11.372;2023-04-25T07:17:57;100060.53;;;5.92;73.70
61786;BME280;47692;53.714;11.372;2023-04-25T07:20:23;100056.06;;;6.02;73.97
61786;BME280;47692;53.714;11.372;2023-04-25T07:22:48;100061.09;;;6.12;73.93
61786;BME280;47692;53.714;11.372;2023-04-25T07:25:15;100068.03;;;6.10;72.36
61786;BME280;47692;53.714;11.372;2023-04-25T07:27:40;100063.69;;;6.12;72.11
61786;BME280;47692;53.714;11.372;2023-04-25T07:30:06;100065.22;;;6.26;72.75
61786;BME280;47692;53.714;11.372;2023-04-25T07:32:31;100064.88;;;6.47;73.26
61786;BME280;47692;53.714;11.372;2023-04-25T07:34:57;100071.66;;;6.58;72.01
61786;BME280;47692;53.714;11.372;2023-04-25T07:37:22;100079.47;;;6.55;70.98
61786;BME280;47692;53.714;11.372;2023-04-25T07:39:47;100077.59;;;6.63;72.19
61786;BME280;47692;53.714;11.372;2023-04-25T07:42:13;100079.16;;;6.73;72.30
61786;BME280;47692;53.714;11.372;2023-04-25T07:44:38;100080.81;;;6.79;71.61
61786;BME280;47692;53.714;11.372;2023-04-25T07:47:07;100078.41;;;6.67;71.73
61786;BME280;47692;53.714;11.372;2023-04-25T07:49:34;100084.41;;;6.70;72.55
61786;BME280;47692;53.714;11.372;2023-04-25T07:52:01;100086.06;;;6.74;73.02
61786;BME280;47692;53.714;11.372;2023-04-25T07:54:26;100080.81;;;6.77;72.15
61786;BME280;47692;53.714;11.372;2023-04-25T07:56:52;100095.47;;;6.82;71.34
61786;BME280;47692;53.714;11.372;2023-04-25T07:59:17;100093.00;;;6.72;71.01
61786;BME280;47692;53.714;11.372;2023-04-25T08:01:42;100101.03;;;6.58;71.50
61786;BME280;47692;53.714;11.372;2023-04-25T08:04:08;100093.97;;;6.65;73.09
61786;BME280;47692;53.714;11.372;2023-04-25T08:06:33;100107.59;;;6.79;73.28
61786;BME280;47692;53.714;11.372;2023-04-25T08:08:58;100103.97;;;6.88;72.10
61786;BME280;47692;53.714;11.372;2023-04-25T08:11:24;100091.06;;;6.84;71.23
61786;BME280;47692;53.714;11.372;2023-04-25T08:13:49;100095.59;;;6.72;70.86
61786;BME280;47692;53.714;11.372;2023-04-25T08:16:15;100100.69;;;6.78;71.72
61786;BME280;47692;53.714;11.372;2023-04-25T08:18:40;100098.16;;;6.75;70.15
61786;BME280;47692;53.714;11.372;2023-04-25T08:21:06;100105.00;;;6.79;71.45
61786;BME280;47692;53.714;11.372;2023-04-25T08:23:33;100110.09;;;6.86;71.63
61786;BME280;47692;53.714;11.372;2023-04-25T08:25:59;100110.09;;;6.86;72.23
61786;BME280;47692;53.714;11.372;2023-04-25T08:28:24;100109.22;;;6.87;72.33
61786;BME280;47692;53.714;11.372;2023-04-25T08:30:49;100120.66;;;6.73;70.84
61786;BME280;47692;53.714;11.372;2023-04-25T08:33:15;100117.22;;;6.71;70.42
61786;BME280;47692;53.714;11.372;2023-04-25T08:35:40;100124.00;;;6.82;72.05
61786;BME280;47692;53.714;11.372;2023-04-25T08:38:05;100126.47;;;6.89;72.55
61786;BME280;47692;53.714;11.372;2023-04-25T08:40:35;100136.81;;;6.91;71.82
61786;BME280;47692;53.714;11.372;2023-04-25T08:43:03;100134.84;;;7.05;72.72
61786;BME280;47692;53.714;11.372;2023-04-25T08:45:31;100130.31;;;7.17;72.48
61786;BME280;47692;53.714;11.372;2023-04-25T08:47:57;100138.94;;;7.19;71.61
61786;BME280;47692;53.714;11.372;2023-04-25T08:50:23;100137.06;;;7.25;71.76
61786;BME280;47692;53.714;11.372;2023-04-25T08:52:49;100137.25;;;7.15;70.24
61786;BME280;47692;53.714;11.372;2023-04-25T08:55:18;100135.72;;;7.04;69.83
61786;BME280;47692;53.714;11.372;2023-04-25T08:57:44;100153.31;;;6.87;70.98
61786;BME280;47692;53.714;11.372;2023-04-25T09:00:11;100143.78;;;6.89;71.96
61786;BME280;47692;53.714;11.372;2023-04-25T09:02:38;100161.19;;;6.81;72.21
61786;BME280;47692;53.714;11.372;2023-04-25T09:05:05;100163.06;;;6.72;72.18
61786;BME280;47692;53.714;11.372;2023-04-25T09:07:32;100165.75;;;6.66;72.66
61786;BME280;47692;53.714;11.372;2023-04-25T09:09:58;100159.75;;;6.64;73.00
61786;BME280;47692;53.714;11.372;2023-04-25T09:12:27;100166.66;;;6.63;72.81
61786;BME280;47692;53.714;11.372;2023-04-25T09:15:10;100162.38;;;6.61;72.30
61786;BME280;47692;53.714;11.372;2023-04-25T09:17:36;100176.03;;;6.72;72.67
61786;BME280;47692;53.714;11.372;2023-04-25T09:20:13;100171.56;;;6.82;72.04
61786;BME280;47692;53.714;11.372;2023-04-25T09:22:39;100177.31;;;7.01;72.93
61786;BME280;47692;53.714;11.372;2023-04-25T09:25:09;100180.38;;;7.25;72.12
61786;BME280;47692;53.714;11.372;2023-04-25T09:27:35;100180.31;;;7.28;68.91
61786;BME280;47692;53.714;11.372;2023-04-25T09:30:01;100173.16;;;7.39;69.15
61786;BME280;47692;53.714;11.372;2023-04-25T09:32:27;100178.13;;;7.52;68.54
61786;BME280;47692;53.714;11.372;2023-04-25T09:34:54;100166.56;;;7.68;69.36
61786;BME280;47692;53.714;11.372;2023-04-25T09:37:22;100175.81;;;7.82;67.11
61786;BME280;47692;53.714;11.372;2023-04-25T09:39:57;100175.06;;;7.76;65.69
61786;BME280;47692;53.714;11.372;2023-04-25T09:42:25;100178.75;;;7.66;65.62
61786;BME280;47692;53.714;11.372;2023-04-25T09:44:53;100185.06;;;7.53;65.98
61786;BME280;47692;53.714;11.372;2023-04-25T09:47:19;100187.94;;;7.37;65.74
61786;BME280;47692;53.714;11.372;2023-04-25T09:49:47;100187.13;;;7.32;65.03
61786;BME280;47692;53.714;11.372;2023-04-25T09:52:15;100184.66;;;7.26;65.66
61786;BME280;47692;53.714;11.372;2023-04-25T09:54:40;100186.44;;;7.24;66.80
61786;BME280;47692;53.714;11.372;2023-04-25T09:57:15;100193.22;;;7.33;66.95
61786;BME280;47692;53.714;11.372;2023-04-25T09:59:52;100190.22;;;7.54;67.41
61786;BME280;47692;53.714;11.372;2023-04-25T10:02:19;100203.66;;;7.76;68.03
61786;BME280;47692;53.714;11.372;2023-04-25T10:04:55;100194.00;;;7.83;66.52
61786;BME280;47692;53.714;11.372;2023-04-25T10:07:26;100191.31;;;7.88;66.06
61786;BME280;47692;53.714;11.372;2023-04-25T10:10:02;100190.09;;;8.06;67.72
61786;BME280;47692;53.714;11.372;2023-04-25T10:12:29;100190.13;;;8.03;65.16
61786;BME280;47692;53.714;11.372;2023-04-25T10:14:57;100191.97;;;7.98;64.82
61786;BME280;47692;53.714;11.372;2023-04-25T10:17:23;100197.13;;;7.99;65.33
61786;BME280;47692;53.714;11.372;2023-04-25T10:19:48;100203.63;;;8.22;66.50
61786;BME280;47692;53.714;11.372;2023-04-25T10:24:42;100212.16;;;8.69;66.71
61786;BME280;47692;53.714;11.372;2023-04-25T10:27:09;100212.28;;;8.63;65.70
61786;BME280;47692;53.714;11.372;2023-04-25T10:29:35;100221.31;;;8.45;65.73
61786;BME280;47692;53.714;11.372;2023-04-25T10:32:00;100221.56;;;8.33;67.05
61786;BME280;47692;53.714;11.372;2023-04-25T10:34:39;100238.31;;;8.21;67.40
61786;BME280;47692;53.714;11.372;2023-04-25T10:37:08;100230.75;;;8.08;67.04
61786;BME280;47692;53.714;11.372;2023-04-25T10:39:34;100228.22;;;8.05;67.84
61786;BME280;47692;53.714;11.372;2023-04-25T10:42:01;100229.28;;;7.95;68.64
61786;BME280;47692;53.714;11.372;2023-04-25T10:44:30;100233.56;;;7.98;69.64
61786;BME280;47692;53.714;11.372;2023-04-25T10:46:56;100219.13;;;7.83;69.91
61786;BME280;47692;53.714;11.372;2023-04-25T10:49:34;100229.59;;;7.80;70.51
61786;BME280;47692;53.714;11.372;2023-04-25T10:54:55;100223.59;;;7.74;70.25
61786;BME280;47692;53.714;11.372;2023-04-25T11:05:08;100236.59;;;7.27;70.16
61786;BME280;47692;53.714;11.372;2023-04-25T11:08:11;100232.34;;;7.22;70.34
61786;BME280;47692;53.714;11.372;2023-04-25T11:10:31;100234.78;;;7.31;70.32
61786;BME280;47692;53.714;11.372;2023-04-25T11:12:57;100242.63;;;7.28;69.46
61786;BME280;47692;53.714;11.372;2023-04-25T11:15:23;100233.88;;;7.32;70.61
61786;BME280;47692;53.714;11.372;2023-04-25T11:17:51;100236.41;;;7.37;70.67
61786;BME280;47692;53.714;11.372;2023-04-25T11:20:16;100240.97;;;7.24;69.84
61786;BME280;47692;53.714;11.372;2023-04-25T11:22:44;100251.38;;;7.21;70.04
61786;BME280;47692;53.714;11.372;2023-04-25T11:25:11;100254.94;;;7.17;70.91
61786;BME280;47692;53.714;11.372;2023-04-25T11:27:38;100262.88;;;7.07;71.79
61786;BME280;47692;53.714;11.372;2023-04-25T11:30:13;100266.34;;;7.06;71.70
61786;BME280;47692;53.714;11.372;2023-04-25T11:32:40;100258.66;;;7.00;71.56
61786;BME280;47692;53.714;11.372;2023-04-25T11:35:07;100258.59;;;7.03;71.77
61786;BME280;47692;53.714;11.372;2023-04-25T11:37:32;100265.50;;;7.04;72.08
61786;BME280;47692;53.714;11.372;2023-04-25T11:39:59;100276.66;;;7.09;71.18
61786;BME280;47692;53.714;11.372;2023-04-25T11:42:24;100275.72;;;7.14;70.33
61786;BME280;47692;53.714;11.372;2023-04-25T11:44:50;100280.19;;;7.05;68.45
61786;BME280;47692;53.714;11.372;2023-04-25T11:47:16;100270.75;;;7.01;69.12
61786;BME280;47692;53.714;11.372;2023-04-25T11:49:41;100289.97;;;6.88;69.43
61786;BME280;47692;53.714;11.372;2023-04-25T11:52:07;100291.78;;;6.83;70.26
61786;BME280;47692;53.714;11.372;2023-04-25T11:54:35;100302.16;;;6.83;71.53
61786;BME280;47692;53.714;11.372;2023-04-25T11:57:01;100291.84;;;6.78;73.64
61786;BME280;47692;53.714;11.372;2023-04-25T11:59:26;100296.28;;;6.68;74.67
61786;BME280;47692;53.714;11.372;2023-04-25T12:01:52;100286.88;;;6.61;74.67
61786;BME280;47692;53.714;11.372;2023-04-25T12:04:22;100290.41;;;6.57;74.84
61786;BME280;47692;53.714;11.372;2023-04-25T12:06:49;100295.50;;;6.63;74.74
61786;BME280;47692;53.714;11.372;2023-04-25T12:09:18;100286.75;;;6.70;73.90
61786;BME280;47692;53.714;11.372;2023-04-25T12:11:45;100281.41;;;6.83;74.26
61786;BME280;47692;53.714;11.372;2023-04-25T12:14:12;100295.91;;;6.98;73.91
61786;BME280;47692;53.714;11.372;2023-04-25T12:16:45;100301.66;;;7.17;72.85
61786;BME280;47692;53.714;11.372;2023-04-25T12:19:15;100299.56;;;7.40;72.00
61786;BME280;47692;53.714;11.372;2023-04-25T12:21:42;100294.81;;;7.64;71.96
61786;BME280;47692;53.714;11.372;2023-04-25T12:26:58;100297.13;;;8.27;69.62
61786;BME280;47692;53.714;11.372;2023-04-25T12:29:25;100310.03;;;8.75;68.82
61786;BME280;47692;53.714;11.372;2023-04-25T12:31:52;100298.19;;;9.01;67.28
61786;BME280;47692;53.714;11.372;2023-04-25T12:34:22;100311.09;;;8.66;66.42
61786;BME280;47692;53.714;11.372;2023-04-25T12:36:48;100311.03;;;8.25;66.36
61786;BME280;47692;53.714;11.372;2023-04-25T12:39:24;100299.41;;;8.00;67.28
61786;BME280;47692;53.714;11.372;2023-04-25T12:41:52;100303.34;;;7.72;68.10
61786;BME280;47692;53.714;11.372;2023-04-25T12:44:21;100309.50;;;7.67;69.79
61786;BME280;47692;53.714;11.372;2023-04-25T12:46:47;100316.75;;;7.48;70.81
61786;BME280;47692;53.714;11.372;2023-04-25T12:49:12;100332.47;;;7.38;73.90
61786;BME280;47692;53.714;11.372;2023-04-25T12:51:38;100333.59;;;7.22;75.55
61786;BME280;47692;53.714;11.372;2023-04-25T12:54:04;100330.47;;;6.98;74.88
61786;BME280;47692;53.714;11.372;2023-04-25T12:56:31;100329.69;;;6.93;74.27
61786;BME280;47692;53.714;11.372;2023-04-25T12:58:56;100325.25;;;7.00;74.39
61786;BME280;47692;53.714;11.372;2023-04-25T13:01:22;100332.09;;;7.07;73.75
61786;BME280;47692;53.714;11.372;2023-04-25T13:03:48;100331.94;;;7.18;71.31